Historyczne dane pomiarowe

Dodano dane terminowe – wersja testowa.

Dane z okresu 1951-2019

Wersja bazy: 1.34 [2019-03-16, lista zmian], aktualizacja planowana na 2019-04-15

Dane meteo z obszaru Polski uzyskane na podstawie danych udostępnionych przez Instytut Meteorologii i Gospodarki Wodnej – Państwowy Instytut Badawczy.

 

Wybierz Datę:    

       

TemperaturaWilgotnośćWiatrCiśnienieOpadyŚniegCzas trwania zjawisk
 Stacja t tx tn tng RH VA  wxwx mslp ppp RRR   cm mm wxwxwxwxwxwxwx
1987-08-14 12.4 16.6 7.5 3.4 84.8- 4.3 0.7---- 2.7------------
1987-08-13 13.6 19.7 8.4 4.5 76.3- 3.7 0.7---- 0.0------------
1987-08-12 13.0 18.8 8.3 4.5 75.8- 4.3 1.0---- 0.0------------
1987-08-11 13.9 18.0 11.4 9.0 76.0- 5.3 1.0---- 0.0------------
1987-08-10 14.9 19.5 12.1 10.5 88.3- 6.0 2.3---- 11.0------------
1987-08-09 17.9 24.0 8.5 4.7 66.0- 3.0 1.7---- 5.3------------
1987-08-08 15.5 21.0 9.2 4.6 69.0- 1.0 1.0---- 0.0------------
1987-08-07 10.6 13.9 6.3 2.3 86.0- 6.0 0.7---- 2.5------------
1987-08-06 10.9 16.0 9.1 6.2 83.5- 5.0 1.7---- 0.6------------
1987-08-05 12.3 17.0 9.7 6.9 84.0- 5.0 1.7---- 0.6------------
1987-08-04 15.8 19.5 14.2 10.3 82.5- 6.7 1.7---- 4.9------------
1987-08-03 15.6 20.5 11.6 8.5 79.0- 3.0 2.3---- 2.4------------
1987-08-02 15.6 20.0 12.1 10.5 77.3- 5.0 3.0---- 5.5------------
1987-08-01 15.7 21.0 10.6 7.1 85.8- 6.0 4.0---- 1.5------------
1987-07-31 15.4 20.2 13.1 12.2 93.5- 7.7 2.0---- 2.9------------
1987-07-30 18.6 23.6 12.8 7.7 77.3- 2.3 0.3---- 2.6------------
1987-07-29 15.0 20.2 11.1 9.5 80.0- 6.0 2.0---- 0.0------------
1987-07-28 13.6 14.9 12.4 10.5 93.3- 7.7 3.3---- 1.4------------
1987-07-27 11.9 17.1 8.7 7.1 83.0- 6.3 2.7---- 5.5------------
1987-07-26 12.4 19.5 10.0 11.1 97.8- 6.0 0.7---- 7.9------------
1987-07-25 18.2 24.0 13.8 10.7 89.8- 6.7 0.7---- 4.5------------
1987-07-24 20.8 26.3 17.7 15.6 85.0- 3.3 0.7---- 2.0------------
1987-07-23 20.8 27.5 13.3 11.0 79.5- 2.0 0.7---- 2.0------------
1987-07-22 19.2 24.7 15.4 14.7 82.0- 3.7 1.0---- 0.0------------
1987-07-21 20.2 25.3 14.3 12.2 82.5- 5.7 0.3---- 18.7------------
1987-07-20 19.6 24.0 16.8 16.4 84.5- 3.7 1.0---- 0.0------------
1987-07-19 22.1 25.9 19.6 18.4 81.3- 3.7 1.3---- 24.3------------
1987-07-18 23.9 29.5 17.3 13.5 74.8- 2.3 1.0---- 0.0------------
1987-07-17 23.0 30.0 17.6 14.5 82.5- 4.0 1.0---- 0.0------------
1987-07-16 20.2 27.6 10.7 11.5 77.3- 1.7 1.0---- 0.0------------
1987-07-15 17.4 24.0 10.7 7.4 77.3- 1.0 1.7---- 0.0------------
1987-07-14 17.0 21.6 11.1 7.9 68.3- 0.0 1.3---- 0.0------------
1987-07-13 19.0 23.5 15.1 11.8 75.3- 3.3 1.3---- 0.0------------
1987-07-12 20.8 27.5 14.4 10.0 72.3- 3.7 2.7---- 9.8------------
1987-07-11 17.4 24.1 9.2 5.4 71.5- 0.7 2.3---- 0.0------------
1987-07-10 15.2 19.5 10.6 7.3 78.3- 2.0 1.7---- 0.0------------
1987-07-09 16.7 23.6 14.5 14.8 93.5- 7.3 0.3---- 10.9------------
1987-07-08 21.6 28.0 13.6 7.1 61.3- 1.3 1.0---- 0.0------------
1987-07-07 19.5 26.1 10.2 4.8 68.0- 0.0 1.0---- 0.0------------
1987-07-06 17.8 23.3 10.0 5.4 73.5- 0.3 1.7---- 0.0------------
1987-07-05 15.5 19.5 11.8 8.8 84.0- 6.3 1.0---- 0.0------------
1987-07-04 19.6 24.0 15.4 12.0 77.3- 1.3 1.3---- 0.0------------
1987-07-03 18.5 21.6 15.5 13.5 82.5- 7.3 1.7---- 0.0------------
1987-07-02 18.3 25.8 16.7 15.5 91.0- 7.7 0.3---- 0.0------------
1987-07-01 24.7 29.6 19.5 13.7 78.8- 0.3 1.7---- 0.0------------
1987-06-30 23.5 29.7 15.5 11.4 80.0- 0.0 0.3---- 0.0------------
1987-06-29 21.6 26.1 17.2 14.1 77.5- 1.3 0.7---- 0.0------------
1987-06-28 19.1 24.7 12.5 9.6 79.8- 2.3 2.3---- 0.0------------
1987-06-27 17.6 21.2 14.7 10.6 87.8- 6.3 1.3---- 0.0------------
1987-06-26 17.2 23.6 8.2 8.8 70.8- 6.7 0.7---- 14.2------------
1987-06-25 14.9 17.5 13.6 11.0 79.5- 6.3 1.3---- 0.0------------
1987-06-24 15.9 20.4 12.2 9.2 74.5- 6.0 1.0---- 0.8------------
1987-06-23 15.7 20.2 12.2 10.9 76.5- 6.7 0.7---- 1.4------------
1987-06-22 15.0 18.6 12.1 8.7 89.8- 8.0 0.7---- 0.0------------
1987-06-21 16.6 23.7 10.4 5.7 76.5- 3.7 0.7---- 3.1------------
1987-06-20 14.9 19.5 9.4 5.0 72.8- 4.7 1.7---- 0.0------------
1987-06-19 12.7 17.9 7.1 4.4 68.0- 4.0 1.3---- 0.0------------
1987-06-18 10.3 13.3 7.9 4.2 83.5- 4.7 3.7---- 0.9------------
1987-06-17 11.8 14.4 8.4 5.5 75.0- 1.3 2.3---- 0.9------------
1987-06-16 13.4 22.1 9.9 10.6 91.5- 6.7 2.0---- 11.1------------
515.5 ms

 

Źródłem pochodzenia danych jest Instytut Meteorologii i Gospodarki Wodnej – Państwowy Instytut Badawczy. Dane Instytutu Meteorologii i Gospodarki Wodnej – Państwowego Instytutu Badawczego zostały przetworzone.

Dane źródłowe można odnaleźć na stronie https://dane.imgw.pl